sensor_id;sensor_type;location;lat;lon;timestamp;pressure;altitude;pressure_sealevel;temperature;humidity
7376;BME280;3728;42.266;24.944;2023-08-07T00:02:10;98691.94;;;24.23;50.81
7376;BME280;3728;42.266;24.944;2023-08-07T00:04:37;98689.38;;;24.16;50.88
7376;BME280;3728;42.266;24.944;2023-08-07T00:07:05;98697.22;;;24.27;50.37
7376;BME280;3728;42.266;24.944;2023-08-07T00:09:32;98689.59;;;24.02;51.39
7376;BME280;3728;42.266;24.944;2023-08-07T00:11:59;98686.22;;;23.98;51.36
7376;BME280;3728;42.266;24.944;2023-08-07T00:14:26;98684.56;;;23.61;52.47
7376;BME280;3728;42.266;24.944;2023-08-07T00:16:53;98693.84;;;23.76;51.51
7376;BME280;3728;42.266;24.944;2023-08-07T00:19:20;98686.41;;;23.88;51.58
7376;BME280;3728;42.266;24.944;2023-08-07T00:21:47;98693.38;;;23.81;51.60
7376;BME280;3728;42.266;24.944;2023-08-07T00:24:14;98694.06;;;23.62;51.91
7376;BME280;3728;42.266;24.944;2023-08-07T00:26:42;98696.47;;;23.80;51.64
7376;BME280;3728;42.266;24.944;2023-08-07T00:29:08;98699.44;;;23.86;50.87
7376;BME280;3728;42.266;24.944;2023-08-07T00:31:36;98705.06;;;23.68;51.07
7376;BME280;3728;42.266;24.944;2023-08-07T00:34:03;98694.91;;;23.59;51.67
7376;BME280;3728;42.266;24.944;2023-08-07T00:36:30;98694.03;;;23.66;52.00
7376;BME280;3728;42.266;24.944;2023-08-07T00:39:02;98697.66;;;23.26;52.98
7376;BME280;3728;42.266;24.944;2023-08-07T00:41:32;98697.50;;;23.63;52.46
7376;BME280;3728;42.266;24.944;2023-08-07T00:43:59;98700.75;;;23.51;52.57
7376;BME280;3728;42.266;24.944;2023-08-07T00:46:29;98704.81;;;23.32;53.47
7376;BME280;3728;42.266;24.944;2023-08-07T00:48:56;98711.94;;;23.15;54.16
7376;BME280;3728;42.266;24.944;2023-08-07T00:51:24;98713.00;;;23.22;54.15
7376;BME280;3728;42.266;24.944;2023-08-07T00:53:51;98712.34;;;23.14;54.82
7376;BME280;3728;42.266;24.944;2023-08-07T00:56:19;98706.66;;;23.12;54.91
7376;BME280;3728;42.266;24.944;2023-08-07T00:58:46;98720.13;;;23.32;54.36
7376;BME280;3728;42.266;24.944;2023-08-07T01:01:13;98722.41;;;23.03;55.40
7376;BME280;3728;42.266;24.944;2023-08-07T01:03:41;98725.56;;;22.94;55.55
7376;BME280;3728;42.266;24.944;2023-08-07T01:06:08;98733.66;;;22.87;56.00
7376;BME280;3728;42.266;24.944;2023-08-07T01:08:35;98736.91;;;23.02;55.02
7376;BME280;3728;42.266;24.944;2023-08-07T01:11:24;98736.13;;;22.75;57.20
7376;BME280;3728;42.266;24.944;2023-08-07T01:19:41;98735.97;;;22.85;56.52
7376;BME280;3728;42.266;24.944;2023-08-07T01:22:14;98740.97;;;22.83;56.92
7376;BME280;3728;42.266;24.944;2023-08-07T01:24:44;98737.41;;;22.60;57.99
7376;BME280;3728;42.266;24.944;2023-08-07T01:27:29;98745.28;;;22.74;57.58
7376;BME280;3728;42.266;24.944;2023-08-07T01:30:14;98728.81;;;22.79;57.34
7376;BME280;3728;42.266;24.944;2023-08-07T01:33:11;98743.13;;;22.58;58.00
7376;BME280;3728;42.266;24.944;2023-08-07T01:35:53;98734.03;;;22.52;59.11
7376;BME280;3728;42.266;24.944;2023-08-07T01:38:25;98735.91;;;22.55;58.50
7376;BME280;3728;42.266;24.944;2023-08-07T01:40:54;98740.81;;;22.60;58.91
7376;BME280;3728;42.266;24.944;2023-08-07T01:43:23;98743.16;;;22.55;58.91
7376;BME280;3728;42.266;24.944;2023-08-07T01:45:51;98739.44;;;22.45;59.27
7376;BME280;3728;42.266;24.944;2023-08-07T01:48:18;98741.56;;;22.23;61.13
7376;BME280;3728;42.266;24.944;2023-08-07T01:50:45;98742.75;;;22.22;60.74
7376;BME280;3728;42.266;24.944;2023-08-07T01:53:13;98749.97;;;22.25;60.79
7376;BME280;3728;42.266;24.944;2023-08-07T01:55:41;98748.66;;;22.00;61.72
7376;BME280;3728;42.266;24.944;2023-08-07T01:58:08;98761.41;;;22.22;60.62
7376;BME280;3728;42.266;24.944;2023-08-07T02:00:35;98760.13;;;22.37;60.37
7376;BME280;3728;42.266;24.944;2023-08-07T02:03:02;98763.91;;;22.40;59.78
7376;BME280;3728;42.266;24.944;2023-08-07T02:05:29;98764.41;;;22.28;60.39
7376;BME280;3728;42.266;24.944;2023-08-07T02:07:56;98765.16;;;22.28;60.59
7376;BME280;3728;42.266;24.944;2023-08-07T02:10:24;98764.72;;;22.33;59.97
7376;BME280;3728;42.266;24.944;2023-08-07T02:12:51;98779.44;;;22.11;61.14
7376;BME280;3728;42.266;24.944;2023-08-07T02:15:19;98780.50;;;22.21;60.88
7376;BME280;3728;42.266;24.944;2023-08-07T02:17:50;98778.47;;;22.32;61.00
7376;BME280;3728;42.266;24.944;2023-08-07T02:20:17;98776.31;;;22.16;61.44
7376;BME280;3728;42.266;24.944;2023-08-07T02:22:44;98782.31;;;22.27;60.60
7376;BME280;3728;42.266;24.944;2023-08-07T02:25:11;98791.91;;;22.66;59.10
7376;BME280;3728;42.266;24.944;2023-08-07T02:27:38;98793.03;;;22.65;59.30
7376;BME280;3728;42.266;24.944;2023-08-07T02:30:06;98792.31;;;22.16;61.63
7376;BME280;3728;42.266;24.944;2023-08-07T02:32:33;98798.81;;;22.12;62.09
7376;BME280;3728;42.266;24.944;2023-08-07T02:35:01;98798.50;;;22.06;62.15
7376;BME280;3728;42.266;24.944;2023-08-07T02:37:28;98806.38;;;21.69;64.68
7376;BME280;3728;42.266;24.944;2023-08-07T02:39:55;98803.75;;;21.58;64.67
7376;BME280;3728;42.266;24.944;2023-08-07T02:42:22;98815.63;;;21.47;65.49
7376;BME280;3728;42.266;24.944;2023-08-07T02:44:49;98825.16;;;21.44;65.62
7376;BME280;3728;42.266;24.944;2023-08-07T02:47:17;98828.47;;;21.62;64.84
7376;BME280;3728;42.266;24.944;2023-08-07T02:49:44;98820.06;;;21.71;65.13
7376;BME280;3728;42.266;24.944;2023-08-07T02:52:11;98819.31;;;21.67;65.12
7376;BME280;3728;42.266;24.944;2023-08-07T02:54:38;98821.59;;;21.65;65.37
7376;BME280;3728;42.266;24.944;2023-08-07T02:57:05;98807.50;;;21.68;65.12
7376;BME280;3728;42.266;24.944;2023-08-07T02:59:32;98825.16;;;21.48;65.83
7376;BME280;3728;42.266;24.944;2023-08-07T03:02:00;98825.50;;;21.50;66.16
7376;BME280;3728;42.266;24.944;2023-08-07T03:04:27;98826.72;;;21.35;66.48
7376;BME280;3728;42.266;24.944;2023-08-07T03:06:54;98819.78;;;21.55;65.36
7376;BME280;3728;42.266;24.944;2023-08-07T03:09:21;98830.53;;;21.34;66.40
7376;BME280;3728;42.266;24.944;2023-08-07T03:11:48;98837.00;;;21.33;66.67
7376;BME280;3728;42.266;24.944;2023-08-07T03:14:15;98827.94;;;21.16;67.27
7376;BME280;3728;42.266;24.944;2023-08-07T03:16:43;98840.13;;;21.17;67.18
7376;BME280;3728;42.266;24.944;2023-08-07T03:19:11;98834.34;;;21.29;67.11
7376;BME280;3728;42.266;24.944;2023-08-07T03:21:39;98839.84;;;21.70;65.63
7376;BME280;3728;42.266;24.944;2023-08-07T03:24:06;98837.72;;;21.40;66.48
7376;BME280;3728;42.266;24.944;2023-08-07T03:26:36;98836.97;;;21.40;66.72
7376;BME280;3728;42.266;24.944;2023-08-07T03:29:04;98831.59;;;21.47;67.11
7376;BME280;3728;42.266;24.944;2023-08-07T03:31:31;98836.94;;;21.47;66.90
7376;BME280;3728;42.266;24.944;2023-08-07T03:33:58;98841.53;;;21.43;67.01
7376;BME280;3728;42.266;24.944;2023-08-07T03:36:26;98847.31;;;21.24;68.17
7376;BME280;3728;42.266;24.944;2023-08-07T03:38:53;98854.16;;;21.25;68.11
7376;BME280;3728;42.266;24.944;2023-08-07T03:41:20;98860.63;;;21.20;68.04
7376;BME280;3728;42.266;24.944;2023-08-07T03:43:48;98859.91;;;21.09;68.99
7376;BME280;3728;42.266;24.944;2023-08-07T03:46:15;98861.44;;;20.99;70.08
7376;BME280;3728;42.266;24.944;2023-08-07T03:48:42;98869.00;;;21.15;69.53
7376;BME280;3728;42.266;24.944;2023-08-07T03:51:10;98870.16;;;21.14;69.48
7376;BME280;3728;42.266;24.944;2023-08-07T03:53:46;98875.47;;;21.21;69.32
7376;BME280;3728;42.266;24.944;2023-08-07T03:56:13;98880.41;;;21.23;69.24
7376;BME280;3728;42.266;24.944;2023-08-07T03:58:41;98890.22;;;21.43;68.63
7376;BME280;3728;42.266;24.944;2023-08-07T04:01:08;98894.38;;;21.55;68.26
7376;BME280;3728;42.266;24.944;2023-08-07T04:03:38;98903.06;;;21.69;67.15
7376;BME280;3728;42.266;24.944;2023-08-07T04:06:05;98902.47;;;21.34;68.28
7376;BME280;3728;42.266;24.944;2023-08-07T04:08:33;98901.09;;;21.84;66.83
7376;BME280;3728;42.266;24.944;2023-08-07T04:11:04;98898.81;;;21.79;67.17
7376;BME280;3728;42.266;24.944;2023-08-07T04:13:33;98901.06;;;21.91;66.92
7376;BME280;3728;42.266;24.944;2023-08-07T04:16:01;98901.47;;;21.79;67.63
7376;BME280;3728;42.266;24.944;2023-08-07T04:18:32;98903.06;;;21.73;67.96
7376;BME280;3728;42.266;24.944;2023-08-07T04:21:01;98908.06;;;21.57;68.65
7376;BME280;3728;42.266;24.944;2023-08-07T04:23:30;98919.88;;;21.59;69.07
7376;BME280;3728;42.266;24.944;2023-08-07T04:25:59;98913.47;;;21.36;70.53
7376;BME280;3728;42.266;24.944;2023-08-07T04:28:29;98915.69;;;21.55;70.45
7376;BME280;3728;42.266;24.944;2023-08-07T04:30:56;98923.97;;;21.85;68.46
7376;BME280;3728;42.266;24.944;2023-08-07T04:33:24;98923.84;;;22.06;67.50
7376;BME280;3728;42.266;24.944;2023-08-07T04:35:51;98925.03;;;22.02;67.48
7376;BME280;3728;42.266;24.944;2023-08-07T04:38:19;98926.47;;;22.13;66.92
7376;BME280;3728;42.266;24.944;2023-08-07T04:40:47;98922.56;;;22.28;65.17
7376;BME280;3728;42.266;24.944;2023-08-07T04:43:16;98918.38;;;22.27;64.99
7376;BME280;3728;42.266;24.944;2023-08-07T04:45:44;98926.03;;;22.25;65.03
7376;BME280;3728;42.266;24.944;2023-08-07T04:48:13;98922.97;;;22.23;65.21
7376;BME280;3728;42.266;24.944;2023-08-07T04:53:07;98922.09;;;22.40;64.76
7376;BME280;3728;42.266;24.944;2023-08-07T04:55:35;98920.13;;;22.52;63.62
7376;BME280;3728;42.266;24.944;2023-08-07T04:58:02;98926.53;;;22.58;63.85
7376;BME280;3728;42.266;24.944;2023-08-07T05:00:29;98916.59;;;22.65;63.50
7376;BME280;3728;42.266;24.944;2023-08-07T05:02:56;98926.88;;;22.67;62.93
7376;BME280;3728;42.266;24.944;2023-08-07T05:05:24;98931.84;;;22.65;62.17
7376;BME280;3728;42.266;24.944;2023-08-07T05:07:51;98935.59;;;22.71;62.56
7376;BME280;3728;42.266;24.944;2023-08-07T05:10:18;98943.13;;;22.83;61.85
7376;BME280;3728;42.266;24.944;2023-08-07T05:12:45;98943.41;;;22.95;61.10
7376;BME280;3728;42.266;24.944;2023-08-07T05:15:12;98945.72;;;22.90;61.14
7376;BME280;3728;42.266;24.944;2023-08-07T05:17:40;98950.81;;;23.18;60.79
7376;BME280;3728;42.266;24.944;2023-08-07T05:20:07;98954.53;;;23.28;61.16
7376;BME280;3728;42.266;24.944;2023-08-07T05:22:35;98950.03;;;23.17;61.57
7376;BME280;3728;42.266;24.944;2023-08-07T05:25:04;98952.84;;;23.44;59.11
7376;BME280;3728;42.266;24.944;2023-08-07T05:27:32;98943.47;;;23.26;59.21
7376;BME280;3728;42.266;24.944;2023-08-07T05:29:59;98944.34;;;23.15;60.13
7376;BME280;3728;42.266;24.944;2023-08-07T05:32:27;98935.13;;;23.24;60.10
7376;BME280;3728;42.266;24.944;2023-08-07T05:34:55;98937.56;;;23.45;58.47
7376;BME280;3728;42.266;24.944;2023-08-07T05:37:22;98921.09;;;23.50;58.14
7376;BME280;3728;42.266;24.944;2023-08-07T05:39:50;98929.16;;;23.46;58.55
7376;BME280;3728;42.266;24.944;2023-08-07T05:42:17;98929.88;;;23.50;57.25
7376;BME280;3728;42.266;24.944;2023-08-07T05:44:44;98927.50;;;23.56;56.76
7376;BME280;3728;42.266;24.944;2023-08-07T05:47:11;98933.53;;;23.63;56.50
7376;BME280;3728;42.266;24.944;2023-08-07T05:49:39;98938.09;;;23.66;56.13
7376;BME280;3728;42.266;24.944;2023-08-07T05:52:07;98936.66;;;23.89;54.89
7376;BME280;3728;42.266;24.944;2023-08-07T05:54:35;98952.25;;;23.94;55.85
7376;BME280;3728;42.266;24.944;2023-08-07T05:57:02;98939.91;;;24.03;54.68
7376;BME280;3728;42.266;24.944;2023-08-07T05:59:29;98943.56;;;23.86;55.36
7376;BME280;3728;42.266;24.944;2023-08-07T06:01:56;98934.72;;;23.93;55.57
7376;BME280;3728;42.266;24.944;2023-08-07T06:04:25;98951.59;;;24.16;55.22
7376;BME280;3728;42.266;24.944;2023-08-07T06:06:52;98958.13;;;24.42;54.36
7376;BME280;3728;42.266;24.944;2023-08-07T06:09:20;98956.81;;;24.50;52.67
7376;BME280;3728;42.266;24.944;2023-08-07T06:11:48;98956.75;;;24.30;53.28
7376;BME280;3728;42.266;24.944;2023-08-07T06:14:15;98956.13;;;24.46;53.49
7376;BME280;3728;42.266;24.944;2023-08-07T06:16:43;98956.81;;;24.50;53.42
7376;BME280;3728;42.266;24.944;2023-08-07T06:19:10;98958.69;;;24.53;52.93
7376;BME280;3728;42.266;24.944;2023-08-07T06:21:55;98949.91;;;24.53;53.18
7376;BME280;3728;42.266;24.944;2023-08-07T06:24:23;98947.91;;;24.83;52.44
7376;BME280;3728;42.266;24.944;2023-08-07T06:26:52;98951.81;;;24.79;52.40
7376;BME280;3728;42.266;24.944;2023-08-07T06:29:20;98950.59;;;24.83;51.46
7376;BME280;3728;42.266;24.944;2023-08-07T06:31:47;98935.47;;;24.70;51.47
7376;BME280;3728;42.266;24.944;2023-08-07T06:34:14;98954.53;;;24.98;51.13
7376;BME280;3728;42.266;24.944;2023-08-07T06:36:41;98955.66;;;25.21;50.54
7376;BME280;3728;42.266;24.944;2023-08-07T06:39:08;98961.88;;;25.18;50.82
7376;BME280;3728;42.266;24.944;2023-08-07T06:41:37;98951.97;;;25.14;51.22
7376;BME280;3728;42.266;24.944;2023-08-07T06:44:04;98960.41;;;25.13;51.72
7376;BME280;3728;42.266;24.944;2023-08-07T06:46:31;98970.94;;;25.24;51.43
7376;BME280;3728;42.266;24.944;2023-08-07T06:48:58;98971.16;;;25.33;50.35
7376;BME280;3728;42.266;24.944;2023-08-07T06:51:25;98970.16;;;25.46;50.04
7376;BME280;3728;42.266;24.944;2023-08-07T06:53:52;98980.13;;;25.65;50.09
7376;BME280;3728;42.266;24.944;2023-08-07T06:56:19;98989.69;;;25.66;50.15
7376;BME280;3728;42.266;24.944;2023-08-07T06:58:46;98978.16;;;25.69;50.77
7376;BME280;3728;42.266;24.944;2023-08-07T07:01:14;98980.78;;;25.89;49.28
7376;BME280;3728;42.266;24.944;2023-08-07T07:03:41;98977.00;;;25.87;49.68
7376;BME280;3728;42.266;24.944;2023-08-07T07:06:09;98983.63;;;25.82;48.69
7376;BME280;3728;42.266;24.944;2023-08-07T07:08:36;98977.63;;;25.94;48.79
7376;BME280;3728;42.266;24.944;2023-08-07T07:11:03;98977.31;;;26.08;48.06
7376;BME280;3728;42.266;24.944;2023-08-07T07:13:31;98992.53;;;26.15;48.04
7376;BME280;3728;42.266;24.944;2023-08-07T07:15:58;98994.03;;;26.35;47.93
7376;BME280;3728;42.266;24.944;2023-08-07T07:18:25;98979.84;;;26.35;48.07
7376;BME280;3728;42.266;24.944;2023-08-07T07:20:59;98980.75;;;26.28;47.76
7376;BME280;3728;42.266;24.944;2023-08-07T07:23:27;98996.16;;;26.76;45.60
7376;BME280;3728;42.266;24.944;2023-08-07T07:25:55;98973.53;;;26.74;46.26
7376;BME280;3728;42.266;24.944;2023-08-07T07:28:22;98984.16;;;26.81;44.39
7376;BME280;3728;42.266;24.944;2023-08-07T07:30:50;98983.28;;;27.00;44.10
7376;BME280;3728;42.266;24.944;2023-08-07T07:33:17;98983.66;;;27.31;42.93
7376;BME280;3728;42.266;24.944;2023-08-07T07:35:44;98983.03;;;27.68;43.20
7376;BME280;3728;42.266;24.944;2023-08-07T07:38:11;98988.91;;;27.50;42.76
7376;BME280;3728;42.266;24.944;2023-08-07T07:40:38;98986.63;;;27.49;42.42
7376;BME280;3728;42.266;24.944;2023-08-07T07:43:05;98981.94;;;27.65;41.74
7376;BME280;3728;42.266;24.944;2023-08-07T07:45:33;98985.78;;;27.52;42.79
7376;BME280;3728;42.266;24.944;2023-08-07T07:48:03;98985.50;;;27.62;42.19
7376;BME280;3728;42.266;24.944;2023-08-07T07:50:31;98986.47;;;28.10;40.03
7376;BME280;3728;42.266;24.944;2023-08-07T07:52:58;98986.72;;;27.87;41.30
7376;BME280;3728;42.266;24.944;2023-08-07T07:55:25;98982.53;;;27.86;41.16
7376;BME280;3728;42.266;24.944;2023-08-07T07:57:54;98980.22;;;28.00;39.94
7376;BME280;3728;42.266;24.944;2023-08-07T08:00:22;98976.00;;;28.24;39.01
7376;BME280;3728;42.266;24.944;2023-08-07T08:02:53;98980.44;;;28.56;39.53
7376;BME280;3728;42.266;24.944;2023-08-07T08:05:21;98981.09;;;28.60;39.11
7376;BME280;3728;42.266;24.944;2023-08-07T08:07:48;98986.66;;;28.78;37.35
7376;BME280;3728;42.266;24.944;2023-08-07T08:10:15;98984.53;;;28.61;37.84
7376;BME280;3728;42.266;24.944;2023-08-07T08:12:43;98981.94;;;28.70;39.13
7376;BME280;3728;42.266;24.944;2023-08-07T08:15:10;98983.91;;;29.03;36.64
7376;BME280;3728;42.266;24.944;2023-08-07T08:17:37;98978.88;;;28.93;36.04
7376;BME280;3728;42.266;24.944;2023-08-07T08:20:07;98967.38;;;28.80;34.83
7376;BME280;3728;42.266;24.944;2023-08-07T08:22:34;98969.53;;;28.72;35.15
7376;BME280;3728;42.266;24.944;2023-08-07T08:25:04;98964.72;;;29.01;33.09
7376;BME280;3728;42.266;24.944;2023-08-07T08:27:31;98971.13;;;29.17;32.44
7376;BME280;3728;42.266;24.944;2023-08-07T08:29:58;98962.56;;;29.31;33.66
7376;BME280;3728;42.266;24.944;2023-08-07T08:32:26;98968.28;;;29.76;33.39
7376;BME280;3728;42.266;24.944;2023-08-07T08:34:53;98960.78;;;29.58;33.58
7376;BME280;3728;42.266;24.944;2023-08-07T08:37:21;98968.59;;;29.78;32.70
7376;BME280;3728;42.266;24.944;2023-08-07T08:39:49;98965.00;;;30.12;31.13
7376;BME280;3728;42.266;24.944;2023-08-07T08:42:16;98961.84;;;30.13;31.10
7376;BME280;3728;42.266;24.944;2023-08-07T08:44:55;98963.09;;;30.61;29.83
7376;BME280;3728;42.266;24.944;2023-08-07T08:47:27;98953.41;;;30.33;29.84
7376;BME280;3728;42.266;24.944;2023-08-07T08:50:06;98952.53;;;30.45;31.27
7376;BME280;3728;42.266;24.944;2023-08-07T08:52:37;98946.38;;;30.44;29.63
7376;BME280;3728;42.266;24.944;2023-08-07T08:55:09;98948.53;;;30.86;29.60
7376;BME280;3728;42.266;24.944;2023-08-07T08:57:39;98946.09;;;30.61;29.38
7376;BME280;3728;42.266;24.944;2023-08-07T09:00:08;98933.81;;;30.78;30.55
7376;BME280;3728;42.266;24.944;2023-08-07T09:02:48;98928.44;;;30.96;30.38
7376;BME280;3728;42.266;24.944;2023-08-07T09:05:17;98920.41;;;31.38;29.20
7376;BME280;3728;42.266;24.944;2023-08-07T09:07:49;98926.13;;;31.31;29.44
7376;BME280;3728;42.266;24.944;2023-08-07T09:10:17;98920.47;;;31.01;28.54
7376;BME280;3728;42.266;24.944;2023-08-07T09:13:00;98918.94;;;31.19;28.41
7376;BME280;3728;42.266;24.944;2023-08-07T09:15:32;98914.72;;;31.45;28.21
7376;BME280;3728;42.266;24.944;2023-08-07T09:18:00;98924.06;;;31.44;28.56
7376;BME280;3728;42.266;24.944;2023-08-07T09:20:30;98920.41;;;31.65;29.59
7376;BME280;3728;42.266;24.944;2023-08-07T09:22:59;98917.03;;;31.79;29.42
7376;BME280;3728;42.266;24.944;2023-08-07T09:25:28;98917.19;;;31.75;28.70
7376;BME280;3728;42.266;24.944;2023-08-07T09:28:02;98909.28;;;31.96;27.82
7376;BME280;3728;42.266;24.944;2023-08-07T09:30:36;98897.25;;;31.97;27.77
7376;BME280;3728;42.266;24.944;2023-08-07T09:33:05;98908.44;;;31.81;27.09
7376;BME280;3728;42.266;24.944;2023-08-07T09:35:34;98898.16;;;31.94;27.24
7376;BME280;3728;42.266;24.944;2023-08-07T09:38:03;98900.00;;;32.44;28.00
7376;BME280;3728;42.266;24.944;2023-08-07T09:40:31;98909.94;;;32.71;27.14
7376;BME280;3728;42.266;24.944;2023-08-07T09:43:00;98911.75;;;32.74;25.80
7376;BME280;3728;42.266;24.944;2023-08-07T09:45:32;98908.03;;;32.62;26.24
7376;BME280;3728;42.266;24.944;2023-08-07T09:48:03;98899.38;;;32.73;26.79
7376;BME280;3728;42.266;24.944;2023-08-07T09:50:33;98900.78;;;33.06;25.87
7376;BME280;3728;42.266;24.944;2023-08-07T09:53:00;98894.69;;;33.26;25.44
7376;BME280;3728;42.266;24.944;2023-08-07T09:55:29;98898.72;;;33.45;25.38
7376;BME280;3728;42.266;24.944;2023-08-07T09:58:01;98890.78;;;33.42;25.56
7376;BME280;3728;42.266;24.944;2023-08-07T10:00:34;98896.47;;;33.73;24.96
7376;BME280;3728;42.266;24.944;2023-08-07T10:03:03;98897.06;;;33.62;24.99
7376;BME280;3728;42.266;24.944;2023-08-07T10:05:31;98886.72;;;33.52;25.29
7376;BME280;3728;42.266;24.944;2023-08-07T10:07:58;98893.69;;;33.53;24.03
7376;BME280;3728;42.266;24.944;2023-08-07T10:10:26;98887.69;;;33.49;23.77
7376;BME280;3728;42.266;24.944;2023-08-07T10:12:54;98886.16;;;33.77;23.68
7376;BME280;3728;42.266;24.944;2023-08-07T10:15:22;98885.69;;;34.13;23.22
7376;BME280;3728;42.266;24.944;2023-08-07T10:17:50;98880.34;;;33.84;23.40
7376;BME280;3728;42.266;24.944;2023-08-07T10:20:18;98875.44;;;33.88;23.19
7376;BME280;3728;42.266;24.944;2023-08-07T10:22:45;98873.06;;;34.10;24.58
7376;BME280;3728;42.266;24.944;2023-08-07T10:25:20;98876.06;;;34.32;24.96
7376;BME280;3728;42.266;24.944;2023-08-07T10:27:49;98881.81;;;34.55;23.39
7376;BME280;3728;42.266;24.944;2023-08-07T10:30:20;98878.44;;;34.65;24.44
7376;BME280;3728;42.266;24.944;2023-08-07T10:32:49;98876.69;;;34.62;22.64
7376;BME280;3728;42.266;24.944;2023-08-07T10:35:30;98868.72;;;34.79;22.24
7376;BME280;3728;42.266;24.944;2023-08-07T10:38:06;98864.72;;;35.00;22.23
7376;BME280;3728;42.266;24.944;2023-08-07T10:43:51;98867.13;;;34.92;22.37
7376;BME280;3728;42.266;24.944;2023-08-07T10:46:20;98859.72;;;34.73;22.84
7376;BME280;3728;42.266;24.944;2023-08-07T10:48:56;98856.91;;;34.87;23.04
7376;BME280;3728;42.266;24.944;2023-08-07T10:51:29;98850.00;;;35.12;21.22
7376;BME280;3728;42.266;24.944;2023-08-07T10:53:59;98848.25;;;35.09;22.22
7376;BME280;3728;42.266;24.944;2023-08-07T10:56:32;98857.59;;;35.34;21.31
7376;BME280;3728;42.266;24.944;2023-08-07T10:59:18;98853.41;;;35.38;22.26
7376;BME280;3728;42.266;24.944;2023-08-07T11:01:51;98849.38;;;35.54;21.96
7376;BME280;3728;42.266;24.944;2023-08-07T11:04:21;98858.59;;;35.31;23.14
7376;BME280;3728;42.266;24.944;2023-08-07T11:06:51;98862.88;;;35.43;21.72
7376;BME280;3728;42.266;24.944;2023-08-07T11:09:19;98846.53;;;35.12;22.42
7376;BME280;3728;42.266;24.944;2023-08-07T11:11:48;98850.19;;;35.34;21.18
7376;BME280;3728;42.266;24.944;2023-08-07T11:14:16;98849.03;;;35.15;22.91
7376;BME280;3728;42.266;24.944;2023-08-07T11:16:46;98841.06;;;35.37;22.62
7376;BME280;3728;42.266;24.944;2023-08-07T11:19:18;98837.47;;;35.57;22.28
7376;BME280;3728;42.266;24.944;2023-08-07T11:21:47;98830.38;;;35.65;22.53
7376;BME280;3728;42.266;24.944;2023-08-07T11:24:15;98830.16;;;35.37;22.89
7376;BME280;3728;42.266;24.944;2023-08-07T11:26:47;98820.47;;;35.31;22.40
7376;BME280;3728;42.266;24.944;2023-08-07T11:29:21;98828.88;;;35.33;22.98
7376;BME280;3728;42.266;24.944;2023-08-07T11:31:51;98829.00;;;35.18;23.35
7376;BME280;3728;42.266;24.944;2023-08-07T11:34:18;98817.75;;;35.36;23.38
7376;BME280;3728;42.266;24.944;2023-08-07T11:36:46;98822.16;;;35.59;21.93
7376;BME280;3728;42.266;24.944;2023-08-07T11:39:14;98816.25;;;35.66;22.98
7376;BME280;3728;42.266;24.944;2023-08-07T11:41:46;98814.06;;;35.70;22.23
7376;BME280;3728;42.266;24.944;2023-08-07T11:44:14;98818.47;;;35.62;23.74
7376;BME280;3728;42.266;24.944;2023-08-07T11:46:43;98817.94;;;36.01;23.56
7376;BME280;3728;42.266;24.944;2023-08-07T11:49:11;98807.22;;;35.97;24.30
7376;BME280;3728;42.266;24.944;2023-08-07T11:51:40;98805.19;;;35.81;24.09
7376;BME280;3728;42.266;24.944;2023-08-07T11:54:13;98800.63;;;36.09;22.58
7376;BME280;3728;42.266;24.944;2023-08-07T11:56:41;98804.97;;;35.85;23.43
7376;BME280;3728;42.266;24.944;2023-08-07T11:59:10;98801.34;;;35.99;23.83
7376;BME280;3728;42.266;24.944;2023-08-07T12:01:40;98804.19;;;36.32;23.72
7376;BME280;3728;42.266;24.944;2023-08-07T12:04:10;98798.22;;;36.28;23.78
7376;BME280;3728;42.266;24.944;2023-08-07T12:06:52;98798.66;;;36.10;23.22
7376;BME280;3728;42.266;24.944;2023-08-07T12:09:21;98797.47;;;36.33;23.34
7376;BME280;3728;42.266;24.944;2023-08-07T12:11:48;98799.72;;;36.34;23.42
7376;BME280;3728;42.266;24.944;2023-08-07T12:14:16;98797.47;;;36.22;23.93
7376;BME280;3728;42.266;24.944;2023-08-07T12:16:49;98793.53;;;36.34;23.47
7376;BME280;3728;42.266;24.944;2023-08-07T12:19:17;98788.56;;;36.38;22.96
7376;BME280;3728;42.266;24.944;2023-08-07T12:21:45;98794.00;;;36.27;22.79
7376;BME280;3728;42.266;24.944;2023-08-07T12:24:13;98793.41;;;36.01;24.32
7376;BME280;3728;42.266;24.944;2023-08-07T12:26:41;98784.31;;;36.26;23.21
7376;BME280;3728;42.266;24.944;2023-08-07T12:29:08;98790.06;;;36.45;22.96
7376;BME280;3728;42.266;24.944;2023-08-07T12:31:37;98786.81;;;36.29;23.71
7376;BME280;3728;42.266;24.944;2023-08-07T12:34:07;98786.06;;;36.29;23.94
7376;BME280;3728;42.266;24.944;2023-08-07T12:36:40;98788.06;;;36.34;23.19
7376;BME280;3728;42.266;24.944;2023-08-07T12:39:08;98786.28;;;36.25;23.92
7376;BME280;3728;42.266;24.944;2023-08-07T12:41:36;98789.69;;;36.04;24.11
7376;BME280;3728;42.266;24.944;2023-08-07T12:44:06;98774.38;;;36.23;23.39
7376;BME280;3728;42.266;24.944;2023-08-07T12:46:38;98783.09;;;36.27;24.08
7376;BME280;3728;42.266;24.944;2023-08-07T12:49:09;98782.97;;;36.86;23.79
7376;BME280;3728;42.266;24.944;2023-08-07T12:51:36;98794.16;;;36.93;23.37
7376;BME280;3728;42.266;24.944;2023-08-07T12:54:04;98794.13;;;36.82;23.49
7376;BME280;3728;42.266;24.944;2023-08-07T12:56:33;98797.88;;;37.18;23.04
7376;BME280;3728;42.266;24.944;2023-08-07T12:59:00;98797.38;;;37.20;23.05
7376;BME280;3728;42.266;24.944;2023-08-07T13:01:28;98791.44;;;36.99;22.79
7376;BME280;3728;42.266;24.944;2023-08-07T13:03:56;98786.47;;;36.97;23.64
7376;BME280;3728;42.266;24.944;2023-08-07T13:06:24;98791.41;;;36.88;23.19
7376;BME280;3728;42.266;24.944;2023-08-07T13:08:52;98786.66;;;36.77;24.29
7376;BME280;3728;42.266;24.944;2023-08-07T13:11:20;98790.66;;;36.76;24.73
7376;BME280;3728;42.266;24.944;2023-08-07T13:13:48;98787.19;;;36.87;23.64
7376;BME280;3728;42.266;24.944;2023-08-07T13:16:16;98778.47;;;36.61;24.02
7376;BME280;3728;42.266;24.944;2023-08-07T13:18:45;98782.97;;;36.69;23.57
7376;BME280;3728;42.266;24.944;2023-08-07T13:21:15;98779.69;;;36.54;24.71
7376;BME280;3728;42.266;24.944;2023-08-07T13:23:44;98778.28;;;37.09;24.00
7376;BME280;3728;42.266;24.944;2023-08-07T13:26:12;98776.06;;;37.07;24.71
7376;BME280;3728;42.266;24.944;2023-08-07T13:28:39;98763.88;;;37.14;24.10
7376;BME280;3728;42.266;24.944;2023-08-07T13:31:07;98772.78;;;37.31;23.91